sensor_id;sensor_type;location;lat;lon;timestamp;P1;durP1;ratioP1;P2;durP2;ratioP2
46717;SDS011;32448;44.960;-0.698;2022-08-25T00:01:10;1.40;;;1.13;;
46717;SDS011;32448;44.960;-0.698;2022-08-25T00:03:41;3.78;;;1.35;;
46717;SDS011;32448;44.960;-0.698;2022-08-25T00:06:07;3.55;;;1.30;;
46717;SDS011;32448;44.960;-0.698;2022-08-25T00:08:34;5.75;;;1.83;;
46717;SDS011;32448;44.960;-0.698;2022-08-25T00:11:06;3.17;;;1.48;;
46717;SDS011;32448;44.960;-0.698;2022-08-25T00:13:35;3.25;;;2.00;;
46717;SDS011;32448;44.960;-0.698;2022-08-25T00:16:02;5.22;;;2.17;;
46717;SDS011;32448;44.960;-0.698;2022-08-25T00:18:28;5.03;;;1.63;;
46717;SDS011;32448;44.960;-0.698;2022-08-25T00:20:54;4.10;;;1.77;;
46717;SDS011;32448;44.960;-0.698;2022-08-25T00:23:19;4.85;;;1.60;;
46717;SDS011;32448;44.960;-0.698;2022-08-25T00:25:45;5.88;;;1.63;;
46717;SDS011;32448;44.960;-0.698;2022-08-25T00:28:11;4.05;;;1.40;;
46717;SDS011;32448;44.960;-0.698;2022-08-25T00:30:38;7.28;;;1.90;;
46717;SDS011;32448;44.960;-0.698;2022-08-25T00:33:03;5.45;;;1.70;;
46717;SDS011;32448;44.960;-0.698;2022-08-25T00:35:29;4.47;;;1.60;;
46717;SDS011;32448;44.960;-0.698;2022-08-25T00:37:55;5.55;;;1.92;;
46717;SDS011;32448;44.960;-0.698;2022-08-25T00:40:21;7.65;;;2.03;;
46717;SDS011;32448;44.960;-0.698;2022-08-25T00:42:48;6.68;;;1.85;;
46717;SDS011;32448;44.960;-0.698;2022-08-25T00:45:14;6.72;;;2.15;;
46717;SDS011;32448;44.960;-0.698;2022-08-25T00:47:39;5.15;;;2.03;;
46717;SDS011;32448;44.960;-0.698;2022-08-25T00:50:06;5.82;;;1.95;;
46717;SDS011;32448;44.960;-0.698;2022-08-25T00:52:37;5.50;;;1.77;;
46717;SDS011;32448;44.960;-0.698;2022-08-25T00:55:13;4.07;;;1.70;;
46717;SDS011;32448;44.960;-0.698;2022-08-25T00:57:40;6.15;;;2.00;;
46717;SDS011;32448;44.960;-0.698;2022-08-25T01:00:14;9.00;;;2.03;;
46717;SDS011;32448;44.960;-0.698;2022-08-25T01:02:43;5.13;;;1.90;;
46717;SDS011;32448;44.960;-0.698;2022-08-25T01:05:10;5.82;;;1.83;;
46717;SDS011;32448;44.960;-0.698;2022-08-25T01:07:36;3.80;;;1.95;;
46717;SDS011;32448;44.960;-0.698;2022-08-25T01:10:03;7.55;;;1.70;;
46717;SDS011;32448;44.960;-0.698;2022-08-25T01:12:32;5.60;;;1.70;;
46717;SDS011;32448;44.960;-0.698;2022-08-25T01:14:58;6.68;;;1.98;;
46717;SDS011;32448;44.960;-0.698;2022-08-25T01:17:31;4.28;;;1.73;;
46717;SDS011;32448;44.960;-0.698;2022-08-25T01:19:59;6.13;;;1.88;;
46717;SDS011;32448;44.960;-0.698;2022-08-25T01:22:25;6.53;;;1.70;;
46717;SDS011;32448;44.960;-0.698;2022-08-25T01:27:31;3.20;;;1.50;;
46717;SDS011;32448;44.960;-0.698;2022-08-25T01:29:57;6.47;;;1.80;;
46717;SDS011;32448;44.960;-0.698;2022-08-25T01:32:23;5.53;;;1.65;;
46717;SDS011;32448;44.960;-0.698;2022-08-25T01:34:49;4.85;;;1.58;;
46717;SDS011;32448;44.960;-0.698;2022-08-25T01:37:15;4.50;;;1.67;;
46717;SDS011;32448;44.960;-0.698;2022-08-25T01:39:41;4.85;;;1.77;;
46717;SDS011;32448;44.960;-0.698;2022-08-25T01:42:12;9.45;;;1.58;;
46717;SDS011;32448;44.960;-0.698;2022-08-25T01:48:18;3.78;;;1.60;;
46717;SDS011;32448;44.960;-0.698;2022-08-25T01:50:44;3.80;;;1.60;;
46717;SDS011;32448;44.960;-0.698;2022-08-25T01:53:31;5.72;;;1.40;;
46717;SDS011;32448;44.960;-0.698;2022-08-25T02:16:15;15.57;;;2.92;;
46717;SDS011;32448;44.960;-0.698;2022-08-25T02:19:36;14.40;;;3.50;;
46717;SDS011;32448;44.960;-0.698;2022-08-25T02:38:49;8.40;;;2.50;;
46717;SDS011;32448;44.960;-0.698;2022-08-25T02:41:16;8.68;;;2.55;;
46717;SDS011;32448;44.960;-0.698;2022-08-25T02:43:44;9.07;;;2.42;;
46717;SDS011;32448;44.960;-0.698;2022-08-25T02:46:12;9.57;;;2.45;;
46717;SDS011;32448;44.960;-0.698;2022-08-25T02:48:38;13.93;;;3.05;;
46717;SDS011;32448;44.960;-0.698;2022-08-25T02:51:04;11.18;;;2.55;;
46717;SDS011;32448;44.960;-0.698;2022-08-25T02:53:31;15.50;;;3.03;;
46717;SDS011;32448;44.960;-0.698;2022-08-25T02:56:00;13.10;;;2.60;;
46717;SDS011;32448;44.960;-0.698;2022-08-25T02:58:26;13.18;;;3.00;;
46717;SDS011;32448;44.960;-0.698;2022-08-25T03:00:53;22.10;;;3.45;;
46717;SDS011;32448;44.960;-0.698;2022-08-25T03:03:20;19.40;;;3.63;;
46717;SDS011;32448;44.960;-0.698;2022-08-25T03:05:45;22.10;;;4.38;;
46717;SDS011;32448;44.960;-0.698;2022-08-25T03:08:11;26.35;;;4.68;;
46717;SDS011;32448;44.960;-0.698;2022-08-25T03:10:37;28.13;;;5.18;;
46717;SDS011;32448;44.960;-0.698;2022-08-25T03:13:04;25.02;;;4.85;;
46717;SDS011;32448;44.960;-0.698;2022-08-25T03:15:29;27.30;;;5.63;;
46717;SDS011;32448;44.960;-0.698;2022-08-25T03:17:56;24.67;;;4.47;;
46717;SDS011;32448;44.960;-0.698;2022-08-25T03:23:13;24.48;;;5.68;;
46717;SDS011;32448;44.960;-0.698;2022-08-25T03:25:39;28.25;;;5.18;;
46717;SDS011;32448;44.960;-0.698;2022-08-25T03:28:23;16.23;;;4.07;;
46717;SDS011;32448;44.960;-0.698;2022-08-25T03:30:50;28.92;;;4.97;;
46717;SDS011;32448;44.960;-0.698;2022-08-25T03:33:17;23.23;;;4.80;;
46717;SDS011;32448;44.960;-0.698;2022-08-25T03:35:43;22.60;;;4.97;;
46717;SDS011;32448;44.960;-0.698;2022-08-25T03:38:09;22.40;;;4.28;;
46717;SDS011;32448;44.960;-0.698;2022-08-25T03:40:35;22.10;;;4.10;;
46717;SDS011;32448;44.960;-0.698;2022-08-25T03:43:14;20.25;;;3.95;;
46717;SDS011;32448;44.960;-0.698;2022-08-25T03:45:40;21.88;;;3.75;;
46717;SDS011;32448;44.960;-0.698;2022-08-25T03:48:08;23.70;;;3.85;;
46717;SDS011;32448;44.960;-0.698;2022-08-25T03:50:34;24.30;;;4.47;;
46717;SDS011;32448;44.960;-0.698;2022-08-25T03:52:59;18.17;;;3.88;;
46717;SDS011;32448;44.960;-0.698;2022-08-25T03:55:25;18.15;;;4.38;;
46717;SDS011;32448;44.960;-0.698;2022-08-25T03:57:52;16.77;;;4.05;;
46717;SDS011;32448;44.960;-0.698;2022-08-25T04:00:18;21.95;;;3.75;;
46717;SDS011;32448;44.960;-0.698;2022-08-25T04:02:54;18.05;;;3.72;;
46717;SDS011;32448;44.960;-0.698;2022-08-25T04:05:20;15.48;;;3.60;;
46717;SDS011;32448;44.960;-0.698;2022-08-25T04:07:46;16.63;;;3.78;;
46717;SDS011;32448;44.960;-0.698;2022-08-25T04:10:11;13.98;;;4.13;;
46717;SDS011;32448;44.960;-0.698;2022-08-25T04:12:37;16.00;;;3.17;;
46717;SDS011;32448;44.960;-0.698;2022-08-25T04:15:04;18.38;;;3.58;;
46717;SDS011;32448;44.960;-0.698;2022-08-25T04:17:30;15.48;;;3.20;;
46717;SDS011;32448;44.960;-0.698;2022-08-25T04:19:56;21.95;;;4.07;;
46717;SDS011;32448;44.960;-0.698;2022-08-25T04:22:22;16.38;;;3.97;;
46717;SDS011;32448;44.960;-0.698;2022-08-25T04:24:48;15.95;;;3.00;;
46717;SDS011;32448;44.960;-0.698;2022-08-25T04:27:13;16.63;;;3.35;;
46717;SDS011;32448;44.960;-0.698;2022-08-25T04:29:39;20.60;;;4.30;;
46717;SDS011;32448;44.960;-0.698;2022-08-25T04:32:05;14.60;;;3.38;;
46717;SDS011;32448;44.960;-0.698;2022-08-25T04:34:30;12.23;;;3.15;;
46717;SDS011;32448;44.960;-0.698;2022-08-25T04:36:56;19.17;;;3.33;;
46717;SDS011;32448;44.960;-0.698;2022-08-25T04:39:24;16.98;;;3.65;;
46717;SDS011;32448;44.960;-0.698;2022-08-25T04:41:49;15.32;;;3.53;;
46717;SDS011;32448;44.960;-0.698;2022-08-25T04:44:15;13.63;;;2.95;;
46717;SDS011;32448;44.960;-0.698;2022-08-25T04:46:41;17.00;;;3.17;;
46717;SDS011;32448;44.960;-0.698;2022-08-25T04:49:07;17.70;;;4.18;;
46717;SDS011;32448;44.960;-0.698;2022-08-25T04:51:35;19.35;;;3.80;;
46717;SDS011;32448;44.960;-0.698;2022-08-25T04:54:05;16.67;;;3.47;;
46717;SDS011;32448;44.960;-0.698;2022-08-25T04:56:33;17.50;;;3.83;;
46717;SDS011;32448;44.960;-0.698;2022-08-25T04:59:02;17.77;;;4.03;;
46717;SDS011;32448;44.960;-0.698;2022-08-25T05:01:31;14.05;;;3.05;;
46717;SDS011;32448;44.960;-0.698;2022-08-25T05:03:59;17.02;;;3.38;;
46717;SDS011;32448;44.960;-0.698;2022-08-25T05:06:27;12.90;;;3.17;;
46717;SDS011;32448;44.960;-0.698;2022-08-25T05:08:53;15.13;;;3.67;;
46717;SDS011;32448;44.960;-0.698;2022-08-25T05:11:20;14.10;;;3.40;;
46717;SDS011;32448;44.960;-0.698;2022-08-25T05:13:48;13.57;;;3.17;;
46717;SDS011;32448;44.960;-0.698;2022-08-25T05:16:15;11.90;;;3.25;;
46717;SDS011;32448;44.960;-0.698;2022-08-25T05:18:41;11.40;;;2.85;;
46717;SDS011;32448;44.960;-0.698;2022-08-25T05:21:10;13.23;;;3.25;;
46717;SDS011;32448;44.960;-0.698;2022-08-25T05:23:38;15.77;;;2.90;;
46717;SDS011;32448;44.960;-0.698;2022-08-25T05:26:12;10.77;;;2.60;;
46717;SDS011;32448;44.960;-0.698;2022-08-25T05:28:40;16.00;;;3.08;;
46717;SDS011;32448;44.960;-0.698;2022-08-25T05:31:06;8.90;;;2.75;;
46717;SDS011;32448;44.960;-0.698;2022-08-25T05:33:34;15.95;;;2.70;;
46717;SDS011;32448;44.960;-0.698;2022-08-25T05:36:00;11.40;;;2.88;;
46717;SDS011;32448;44.960;-0.698;2022-08-25T05:38:26;13.07;;;2.83;;
46717;SDS011;32448;44.960;-0.698;2022-08-25T05:40:56;13.35;;;3.35;;
46717;SDS011;32448;44.960;-0.698;2022-08-25T05:43:27;10.70;;;2.38;;
46717;SDS011;32448;44.960;-0.698;2022-08-25T05:45:54;11.10;;;2.47;;
46717;SDS011;32448;44.960;-0.698;2022-08-25T05:48:20;12.35;;;3.60;;
46717;SDS011;32448;44.960;-0.698;2022-08-25T05:50:54;10.73;;;2.85;;
46717;SDS011;32448;44.960;-0.698;2022-08-25T05:53:21;13.15;;;3.05;;
46717;SDS011;32448;44.960;-0.698;2022-08-25T05:55:48;8.68;;;2.70;;
46717;SDS011;32448;44.960;-0.698;2022-08-25T05:58:15;10.10;;;2.80;;
46717;SDS011;32448;44.960;-0.698;2022-08-25T06:00:40;11.35;;;3.20;;
46717;SDS011;32448;44.960;-0.698;2022-08-25T06:03:06;14.30;;;2.58;;
46717;SDS011;32448;44.960;-0.698;2022-08-25T06:05:32;9.80;;;2.63;;
46717;SDS011;32448;44.960;-0.698;2022-08-25T06:07:58;12.18;;;2.55;;
46717;SDS011;32448;44.960;-0.698;2022-08-25T06:10:25;14.40;;;2.50;;
46717;SDS011;32448;44.960;-0.698;2022-08-25T06:12:51;10.23;;;2.38;;
46717;SDS011;32448;44.960;-0.698;2022-08-25T06:15:18;6.53;;;2.20;;
46717;SDS011;32448;44.960;-0.698;2022-08-25T06:17:46;7.55;;;1.75;;
46717;SDS011;32448;44.960;-0.698;2022-08-25T06:20:14;9.35;;;2.38;;
46717;SDS011;32448;44.960;-0.698;2022-08-25T06:22:41;9.52;;;2.22;;
46717;SDS011;32448;44.960;-0.698;2022-08-25T06:25:08;9.25;;;2.30;;
46717;SDS011;32448;44.960;-0.698;2022-08-25T06:27:34;10.35;;;2.10;;
46717;SDS011;32448;44.960;-0.698;2022-08-25T06:30:00;7.97;;;2.40;;
46717;SDS011;32448;44.960;-0.698;2022-08-25T06:32:32;7.97;;;2.10;;
46717;SDS011;32448;44.960;-0.698;2022-08-25T06:35:01;13.77;;;2.63;;
46717;SDS011;32448;44.960;-0.698;2022-08-25T06:37:27;12.38;;;2.58;;
46717;SDS011;32448;44.960;-0.698;2022-08-25T06:39:53;9.85;;;2.45;;
46717;SDS011;32448;44.960;-0.698;2022-08-25T06:42:19;13.98;;;2.58;;
46717;SDS011;32448;44.960;-0.698;2022-08-25T06:44:45;13.60;;;3.17;;
46717;SDS011;32448;44.960;-0.698;2022-08-25T06:47:10;14.98;;;2.75;;
46717;SDS011;32448;44.960;-0.698;2022-08-25T06:49:36;13.07;;;2.85;;
46717;SDS011;32448;44.960;-0.698;2022-08-25T06:52:02;11.77;;;3.17;;
46717;SDS011;32448;44.960;-0.698;2022-08-25T06:54:28;12.38;;;3.78;;
46717;SDS011;32448;44.960;-0.698;2022-08-25T06:56:54;10.70;;;2.70;;
46717;SDS011;32448;44.960;-0.698;2022-08-25T06:59:19;15.93;;;3.08;;
46717;SDS011;32448;44.960;-0.698;2022-08-25T07:01:45;13.18;;;2.80;;
46717;SDS011;32448;44.960;-0.698;2022-08-25T07:04:11;15.75;;;3.25;;
46717;SDS011;32448;44.960;-0.698;2022-08-25T07:06:37;12.23;;;3.00;;
46717;SDS011;32448;44.960;-0.698;2022-08-25T07:09:03;12.55;;;3.10;;
46717;SDS011;32448;44.960;-0.698;2022-08-25T07:11:30;14.05;;;2.97;;
46717;SDS011;32448;44.960;-0.698;2022-08-25T07:13:59;14.55;;;3.17;;
46717;SDS011;32448;44.960;-0.698;2022-08-25T07:16:25;15.23;;;3.20;;
46717;SDS011;32448;44.960;-0.698;2022-08-25T07:18:52;16.92;;;3.60;;
46717;SDS011;32448;44.960;-0.698;2022-08-25T07:21:20;13.27;;;2.97;;
46717;SDS011;32448;44.960;-0.698;2022-08-25T07:23:49;19.88;;;3.42;;
46717;SDS011;32448;44.960;-0.698;2022-08-25T07:26:19;16.55;;;2.90;;
46717;SDS011;32448;44.960;-0.698;2022-08-25T07:28:48;12.30;;;2.55;;
46717;SDS011;32448;44.960;-0.698;2022-08-25T07:31:15;13.38;;;3.15;;
46717;SDS011;32448;44.960;-0.698;2022-08-25T07:33:41;13.10;;;2.28;;
46717;SDS011;32448;44.960;-0.698;2022-08-25T07:36:27;12.35;;;2.97;;
46717;SDS011;32448;44.960;-0.698;2022-08-25T07:38:55;14.95;;;2.78;;
46717;SDS011;32448;44.960;-0.698;2022-08-25T07:41:24;9.43;;;2.50;;
46717;SDS011;32448;44.960;-0.698;2022-08-25T07:43:50;8.55;;;2.30;;
46717;SDS011;32448;44.960;-0.698;2022-08-25T07:46:16;7.40;;;2.05;;
46717;SDS011;32448;44.960;-0.698;2022-08-25T07:48:42;10.65;;;2.10;;
46717;SDS011;32448;44.960;-0.698;2022-08-25T07:51:09;11.50;;;2.67;;
46717;SDS011;32448;44.960;-0.698;2022-08-25T07:53:38;6.38;;;2.35;;
46717;SDS011;32448;44.960;-0.698;2022-08-25T07:56:14;9.80;;;2.25;;
46717;SDS011;32448;44.960;-0.698;2022-08-25T07:58:41;12.27;;;2.67;;
46717;SDS011;32448;44.960;-0.698;2022-08-25T08:01:18;7.57;;;2.30;;
46717;SDS011;32448;44.960;-0.698;2022-08-25T08:03:45;8.52;;;2.30;;
46717;SDS011;32448;44.960;-0.698;2022-08-25T08:06:12;9.27;;;2.50;;
46717;SDS011;32448;44.960;-0.698;2022-08-25T08:08:40;11.48;;;2.20;;
46717;SDS011;32448;44.960;-0.698;2022-08-25T08:13:56;7.72;;;2.10;;
46717;SDS011;32448;44.960;-0.698;2022-08-25T08:16:23;9.98;;;2.92;;
46717;SDS011;32448;44.960;-0.698;2022-08-25T08:18:50;5.53;;;2.20;;
46717;SDS011;32448;44.960;-0.698;2022-08-25T08:21:17;6.95;;;2.10;;
46717;SDS011;32448;44.960;-0.698;2022-08-25T08:23:45;11.20;;;2.25;;
46717;SDS011;32448;44.960;-0.698;2022-08-25T08:26:12;6.18;;;2.35;;
46717;SDS011;32448;44.960;-0.698;2022-08-25T08:28:38;9.02;;;2.30;;
46717;SDS011;32448;44.960;-0.698;2022-08-25T08:31:03;9.65;;;2.60;;
46717;SDS011;32448;44.960;-0.698;2022-08-25T08:33:29;9.52;;;2.35;;
46717;SDS011;32448;44.960;-0.698;2022-08-25T08:36:00;10.20;;;2.20;;
46717;SDS011;32448;44.960;-0.698;2022-08-25T08:38:30;8.27;;;2.58;;
46717;SDS011;32448;44.960;-0.698;2022-08-25T08:52:43;5.65;;;2.22;;
46717;SDS011;32448;44.960;-0.698;2022-08-25T08:55:23;7.90;;;2.30;;
46717;SDS011;32448;44.960;-0.698;2022-08-25T08:57:55;6.43;;;2.13;;
46717;SDS011;32448;44.960;-0.698;2022-08-25T09:00:23;8.57;;;2.65;;
46717;SDS011;32448;44.960;-0.698;2022-08-25T09:02:56;10.75;;;2.88;;
46717;SDS011;32448;44.960;-0.698;2022-08-25T09:05:28;3.38;;;2.10;;
46717;SDS011;32448;44.960;-0.698;2022-08-25T09:08:00;5.82;;;2.15;;
46717;SDS011;32448;44.960;-0.698;2022-08-25T09:10:34;7.07;;;2.20;;
46717;SDS011;32448;44.960;-0.698;2022-08-25T09:13:30;6.35;;;1.90;;
46717;SDS011;32448;44.960;-0.698;2022-08-25T09:17:00;5.60;;;2.03;;
46717;SDS011;32448;44.960;-0.698;2022-08-25T09:19:31;5.70;;;2.08;;
46717;SDS011;32448;44.960;-0.698;2022-08-25T09:22:17;7.85;;;2.05;;
46717;SDS011;32448;44.960;-0.698;2022-08-25T09:24:59;5.63;;;2.05;;
46717;SDS011;32448;44.960;-0.698;2022-08-25T09:27:40;5.57;;;1.73;;
46717;SDS011;32448;44.960;-0.698;2022-08-25T09:30:26;3.17;;;1.70;;
46717;SDS011;32448;44.960;-0.698;2022-08-25T09:33:01;3.70;;;1.60;;
46717;SDS011;32448;44.960;-0.698;2022-08-25T09:35:32;4.05;;;1.60;;
46717;SDS011;32448;44.960;-0.698;2022-08-25T09:38:02;3.83;;;2.17;;
46717;SDS011;32448;44.960;-0.698;2022-08-25T09:40:32;3.45;;;2.20;;
46717;SDS011;32448;44.960;-0.698;2022-08-25T09:43:01;5.55;;;1.75;;
46717;SDS011;32448;44.960;-0.698;2022-08-25T09:45:38;7.35;;;1.80;;
46717;SDS011;32448;44.960;-0.698;2022-08-25T09:48:19;7.22;;;2.00;;
46717;SDS011;32448;44.960;-0.698;2022-08-25T09:50:45;8.10;;;1.70;;
46717;SDS011;32448;44.960;-0.698;2022-08-25T09:53:12;7.47;;;2.08;;
46717;SDS011;32448;44.960;-0.698;2022-08-25T09:55:40;9.10;;;2.13;;
46717;SDS011;32448;44.960;-0.698;2022-08-25T09:58:19;5.85;;;1.92;;
46717;SDS011;32448;44.960;-0.698;2022-08-25T10:03:37;6.53;;;2.25;;
46717;SDS011;32448;44.960;-0.698;2022-08-25T10:06:18;11.57;;;2.22;;
46717;SDS011;32448;44.960;-0.698;2022-08-25T10:11:12;8.30;;;2.03;;
46717;SDS011;32448;44.960;-0.698;2022-08-25T10:13:59;9.15;;;1.70;;
46717;SDS011;32448;44.960;-0.698;2022-08-25T10:16:30;11.95;;;2.00;;
46717;SDS011;32448;44.960;-0.698;2022-08-25T10:21:37;6.30;;;1.95;;
46717;SDS011;32448;44.960;-0.698;2022-08-25T10:24:05;10.25;;;1.92;;
46717;SDS011;32448;44.960;-0.698;2022-08-25T10:32:19;8.32;;;1.85;;
46717;SDS011;32448;44.960;-0.698;2022-08-25T10:34:54;6.50;;;1.60;;
46717;SDS011;32448;44.960;-0.698;2022-08-25T10:40:23;7.40;;;1.63;;
46717;SDS011;32448;44.960;-0.698;2022-08-25T10:48:39;7.13;;;1.60;;
46717;SDS011;32448;44.960;-0.698;2022-08-25T10:54:02;4.78;;;1.20;;
46717;SDS011;32448;44.960;-0.698;2022-08-25T10:56:44;6.25;;;1.42;;
46717;SDS011;32448;44.960;-0.698;2022-08-25T11:07:45;6.65;;;1.85;;
46717;SDS011;32448;44.960;-0.698;2022-08-25T11:10:37;7.57;;;1.77;;
46717;SDS011;32448;44.960;-0.698;2022-08-25T11:13:32;7.97;;;2.17;;
46717;SDS011;32448;44.960;-0.698;2022-08-25T11:16:02;7.20;;;1.80;;
46717;SDS011;32448;44.960;-0.698;2022-08-25T11:18:35;6.63;;;1.48;;
46717;SDS011;32448;44.960;-0.698;2022-08-25T11:21:09;8.82;;;1.80;;
46717;SDS011;32448;44.960;-0.698;2022-08-25T11:23:45;7.13;;;1.63;;
46717;SDS011;32448;44.960;-0.698;2022-08-25T11:26:23;12.93;;;2.30;;
46717;SDS011;32448;44.960;-0.698;2022-08-25T11:29:05;9.80;;;2.05;;
46717;SDS011;32448;44.960;-0.698;2022-08-25T11:31:39;9.43;;;1.90;;
46717;SDS011;32448;44.960;-0.698;2022-08-25T11:34:12;8.60;;;1.83;;
46717;SDS011;32448;44.960;-0.698;2022-08-25T11:36:40;10.38;;;2.10;;
46717;SDS011;32448;44.960;-0.698;2022-08-25T11:39:30;9.05;;;1.95;;
46717;SDS011;32448;44.960;-0.698;2022-08-25T11:42:12;7.50;;;1.88;;
46717;SDS011;32448;44.960;-0.698;2022-08-25T11:52:51;11.15;;;2.13;;
46717;SDS011;32448;44.960;-0.698;2022-08-25T11:58:25;11.15;;;2.17;;
46717;SDS011;32448;44.960;-0.698;2022-08-25T12:00:49;8.07;;;2.17;;
46717;SDS011;32448;44.960;-0.698;2022-08-25T12:08:49;8.85;;;2.10;;
46717;SDS011;32448;44.960;-0.698;2022-08-25T12:12:00;7.03;;;1.77;;
46717;SDS011;32448;44.960;-0.698;2022-08-25T12:27:08;9.15;;;1.45;;
46717;SDS011;32448;44.960;-0.698;2022-08-25T12:40:59;5.75;;;1.70;;
46717;SDS011;32448;44.960;-0.698;2022-08-25T12:43:30;5.57;;;1.77;;
46717;SDS011;32448;44.960;-0.698;2022-08-25T12:51:53;4.50;;;1.65;;
46717;SDS011;32448;44.960;-0.698;2022-08-25T13:12:18;6.50;;;1.55;;
46717;SDS011;32448;44.960;-0.698;2022-08-25T13:14:55;9.13;;;1.50;;
46717;SDS011;32448;44.960;-0.698;2022-08-25T13:17:29;7.60;;;2.20;;
46717;SDS011;32448;44.960;-0.698;2022-08-25T13:20:16;8.73;;;1.67;;
46717;SDS011;32448;44.960;-0.698;2022-08-25T13:22:48;7.07;;;1.90;;
46717;SDS011;32448;44.960;-0.698;2022-08-25T13:25:23;6.97;;;1.48;;
46717;SDS011;32448;44.960;-0.698;2022-08-25T13:27:53;4.50;;;1.50;;
46717;SDS011;32448;44.960;-0.698;2022-08-25T13:30:25;6.90;;;1.60;;
46717;SDS011;32448;44.960;-0.698;2022-08-25T13:32:54;7.15;;;1.58;;
46717;SDS011;32448;44.960;-0.698;2022-08-25T13:35:27;5.25;;;1.42;;
46717;SDS011;32448;44.960;-0.698;2022-08-25T13:38:15;4.97;;;1.40;;
46717;SDS011;32448;44.960;-0.698;2022-08-25T13:40:41;6.65;;;1.58;;
46717;SDS011;32448;44.960;-0.698;2022-08-25T13:43:08;11.40;;;2.03;;
46717;SDS011;32448;44.960;-0.698;2022-08-25T13:45:45;5.60;;;1.40;;
46717;SDS011;32448;44.960;-0.698;2022-08-25T13:48:12;5.28;;;1.85;;
46717;SDS011;32448;44.960;-0.698;2022-08-25T13:51:02;7.57;;;2.00;;
46717;SDS011;32448;44.960;-0.698;2022-08-25T13:53:47;4.07;;;1.35;;
46717;SDS011;32448;44.960;-0.698;2022-08-25T13:56:21;3.85;;;1.30;;
46717;SDS011;32448;44.960;-0.698;2022-08-25T13:58:49;5.38;;;1.30;;
46717;SDS011;32448;44.960;-0.698;2022-08-25T14:01:19;7.43;;;1.50;;
46717;SDS011;32448;44.960;-0.698;2022-08-25T14:04:21;4.88;;;1.38;;
46717;SDS011;32448;44.960;-0.698;2022-08-25T14:09:54;3.17;;;1.30;;
46717;SDS011;32448;44.960;-0.698;2022-08-25T14:18:09;4.63;;;1.23;;
46717;SDS011;32448;44.960;-0.698;2022-08-25T14:20:54;4.57;;;1.58;;
46717;SDS011;32448;44.960;-0.698;2022-08-25T14:23:25;7.50;;;1.67;;
46717;SDS011;32448;44.960;-0.698;2022-08-25T14:25:54;9.68;;;1.90;;
46717;SDS011;32448;44.960;-0.698;2022-08-25T14:28:23;6.10;;;1.77;;
46717;SDS011;32448;44.960;-0.698;2022-08-25T14:30:51;5.43;;;1.33;;
46717;SDS011;32448;44.960;-0.698;2022-08-25T14:33:21;4.20;;;1.40;;
46717;SDS011;32448;44.960;-0.698;2022-08-25T14:35:51;4.60;;;1.58;;
46717;SDS011;32448;44.960;-0.698;2022-08-25T14:38:19;4.15;;;1.88;;
46717;SDS011;32448;44.960;-0.698;2022-08-25T14:40:46;6.03;;;1.30;;
46717;SDS011;32448;44.960;-0.698;2022-08-25T14:43:12;4.40;;;1.30;;
46717;SDS011;32448;44.960;-0.698;2022-08-25T14:45:40;3.85;;;1.25;;
46717;SDS011;32448;44.960;-0.698;2022-08-25T14:48:31;4.38;;;1.50;;
46717;SDS011;32448;44.960;-0.698;2022-08-25T14:50:57;3.67;;;1.40;;
46717;SDS011;32448;44.960;-0.698;2022-08-25T14:53:24;4.68;;;1.40;;
46717;SDS011;32448;44.960;-0.698;2022-08-25T14:55:51;8.07;;;1.63;;
46717;SDS011;32448;44.960;-0.698;2022-08-25T14:58:22;5.15;;;2.38;;
46717;SDS011;32448;44.960;-0.698;2022-08-25T15:00:48;4.70;;;1.33;;
46717;SDS011;32448;44.960;-0.698;2022-08-25T15:03:15;3.13;;;1.10;;
46717;SDS011;32448;44.960;-0.698;2022-08-25T15:05:49;4.45;;;1.20;;
46717;SDS011;32448;44.960;-0.698;2022-08-25T15:08:15;1.95;;;1.02;;
46717;SDS011;32448;44.960;-0.698;2022-08-25T15:10:59;5.90;;;1.40;;
46717;SDS011;32448;44.960;-0.698;2022-08-25T15:13:24;3.63;;;1.10;;
46717;SDS011;32448;44.960;-0.698;2022-08-25T15:15:51;4.38;;;1.40;;
46717;SDS011;32448;44.960;-0.698;2022-08-25T15:18:18;4.25;;;1.40;;
46717;SDS011;32448;44.960;-0.698;2022-08-25T15:20:44;3.75;;;1.33;;
46717;SDS011;32448;44.960;-0.698;2022-08-25T15:23:09;4.65;;;1.15;;
46717;SDS011;32448;44.960;-0.698;2022-08-25T15:25:35;3.80;;;1.35;;
46717;SDS011;32448;44.960;-0.698;2022-08-25T15:28:04;2.92;;;1.30;;
46717;SDS011;32448;44.960;-0.698;2022-08-25T15:30:31;5.25;;;1.23;;
46717;SDS011;32448;44.960;-0.698;2022-08-25T15:32:57;3.60;;;1.13;;
46717;SDS011;32448;44.960;-0.698;2022-08-25T15:35:23;4.90;;;1.27;;
46717;SDS011;32448;44.960;-0.698;2022-08-25T15:37:49;4.10;;;1.42;;
46717;SDS011;32448;44.960;-0.698;2022-08-25T15:40:14;5.63;;;1.55;;
46717;SDS011;32448;44.960;-0.698;2022-08-25T15:42:40;4.03;;;1.00;;
46717;SDS011;32448;44.960;-0.698;2022-08-25T15:45:06;3.28;;;1.10;;
46717;SDS011;32448;44.960;-0.698;2022-08-25T15:47:33;2.60;;;1.00;;
46717;SDS011;32448;44.960;-0.698;2022-08-25T15:50:01;4.15;;;1.08;;
46717;SDS011;32448;44.960;-0.698;2022-08-25T15:52:39;5.65;;;0.93;;
46717;SDS011;32448;44.960;-0.698;2022-08-25T15:55:05;2.90;;;1.08;;
46717;SDS011;32448;44.960;-0.698;2022-08-25T15:57:32;3.90;;;0.90;;
46717;SDS011;32448;44.960;-0.698;2022-08-25T15:59:58;3.80;;;0.90;;
46717;SDS011;32448;44.960;-0.698;2022-08-25T16:02:23;2.65;;;1.10;;
46717;SDS011;32448;44.960;-0.698;2022-08-25T16:04:49;0.95;;;0.80;;
46717;SDS011;32448;44.960;-0.698;2022-08-25T16:07:15;1.85;;;0.93;;
46717;SDS011;32448;44.960;-0.698;2022-08-25T16:09:41;2.10;;;1.00;;
46717;SDS011;32448;44.960;-0.698;2022-08-25T16:12:07;3.28;;;1.10;;
46717;SDS011;32448;44.960;-0.698;2022-08-25T16:14:33;1.77;;;0.93;;
46717;SDS011;32448;44.960;-0.698;2022-08-25T16:16:58;3.42;;;1.30;;
46717;SDS011;32448;44.960;-0.698;2022-08-25T16:19:24;4.40;;;1.30;;
46717;SDS011;32448;44.960;-0.698;2022-08-25T16:21:50;4.55;;;1.45;;
46717;SDS011;32448;44.960;-0.698;2022-08-25T16:24:16;4.20;;;1.55;;
46717;SDS011;32448;44.960;-0.698;2022-08-25T16:26:42;4.60;;;1.60;;
46717;SDS011;32448;44.960;-0.698;2022-08-25T16:29:10;3.20;;;1.40;;
46717;SDS011;32448;44.960;-0.698;2022-08-25T16:31:38;3.17;;;1.13;;
46717;SDS011;32448;44.960;-0.698;2022-08-25T16:34:04;2.03;;;0.95;;
46717;SDS011;32448;44.960;-0.698;2022-08-25T16:36:30;5.35;;;1.33;;
46717;SDS011;32448;44.960;-0.698;2022-08-25T16:38:55;2.95;;;1.35;;
46717;SDS011;32448;44.960;-0.698;2022-08-25T16:41:23;4.63;;;1.55;;
46717;SDS011;32448;44.960;-0.698;2022-08-25T16:43:51;3.28;;;1.30;;
46717;SDS011;32448;44.960;-0.698;2022-08-25T16:46:18;5.70;;;1.70;;
46717;SDS011;32448;44.960;-0.698;2022-08-25T16:48:45;4.30;;;1.13;;
46717;SDS011;32448;44.960;-0.698;2022-08-25T16:51:12;4.05;;;1.08;;
46717;SDS011;32448;44.960;-0.698;2022-08-25T16:53:40;3.47;;;1.00;;
46717;SDS011;32448;44.960;-0.698;2022-08-25T16:56:25;4.38;;;1.20;;
46717;SDS011;32448;44.960;-0.698;2022-08-25T16:58:52;2.25;;;1.10;;
46717;SDS011;32448;44.960;-0.698;2022-08-25T17:01:20;3.78;;;1.20;;
46717;SDS011;32448;44.960;-0.698;2022-08-25T17:03:46;4.15;;;1.30;;
46717;SDS011;32448;44.960;-0.698;2022-08-25T17:06:14;3.65;;;1.38;;
46717;SDS011;32448;44.960;-0.698;2022-08-25T17:08:40;3.90;;;1.05;;
46717;SDS011;32448;44.960;-0.698;2022-08-25T17:11:08;3.03;;;1.20;;
46717;SDS011;32448;44.960;-0.698;2022-08-25T17:13:36;2.58;;;1.00;;
46717;SDS011;32448;44.960;-0.698;2022-08-25T17:16:04;2.72;;;1.08;;
46717;SDS011;32448;44.960;-0.698;2022-08-25T17:18:30;3.15;;;0.90;;
46717;SDS011;32448;44.960;-0.698;2022-08-25T17:20:57;2.35;;;1.13;;
46717;SDS011;32448;44.960;-0.698;2022-08-25T17:23:27;2.17;;;0.98;;
46717;SDS011;32448;44.960;-0.698;2022-08-25T17:25:53;2.55;;;1.30;;
46717;SDS011;32448;44.960;-0.698;2022-08-25T17:28:19;2.40;;;1.10;;
46717;SDS011;32448;44.960;-0.698;2022-08-25T17:30:45;4.30;;;1.10;;
46717;SDS011;32448;44.960;-0.698;2022-08-25T17:33:11;2.47;;;1.38;;